createdAt,value
2023-01-17T00:00:16.110Z,971.12
2023-01-17T00:01:16.015Z,971.03
2023-01-17T00:02:16.108Z,971.15
2023-01-17T00:03:16.018Z,971.05
2023-01-17T00:04:16.017Z,971.03
2023-01-17T00:05:15.967Z,971.01
2023-01-17T00:06:15.950Z,971.12
2023-01-17T00:07:15.953Z,971.13
2023-01-17T00:08:15.931Z,971.10
2023-01-17T00:09:15.914Z,971.13
2023-01-17T00:10:15.921Z,971.03
2023-01-17T00:11:15.900Z,971.04
2023-01-17T00:12:15.890Z,971.08
2023-01-17T00:13:15.863Z,971.14
2023-01-17T00:14:15.847Z,971.10
2023-01-17T00:15:15.836Z,971.13
2023-01-17T00:16:15.864Z,971.09
2023-01-17T00:17:15.821Z,971.18
2023-01-17T00:18:15.795Z,971.24
2023-01-17T00:19:15.801Z,971.10
2023-01-17T00:20:15.778Z,971.07
2023-01-17T00:21:15.777Z,971.11
2023-01-17T00:22:15.758Z,971.13
2023-01-17T00:23:15.728Z,971.11
2023-01-17T00:24:15.725Z,971.11
2023-01-17T00:25:15.698Z,971.18
2023-01-17T00:26:15.704Z,971.17
2023-01-17T00:27:15.695Z,971.13
2023-01-17T00:28:15.672Z,971.17
2023-01-17T00:29:15.648Z,971.12
2023-01-17T00:30:15.636Z,971.24
2023-01-17T00:31:15.710Z,971.19
2023-01-17T00:32:15.632Z,971.16
2023-01-17T00:33:15.602Z,971.25
2023-01-17T00:34:15.584Z,971.22
2023-01-17T00:35:15.589Z,971.32
2023-01-17T00:36:15.563Z,971.26
2023-01-17T00:37:15.544Z,971.27
2023-01-17T00:38:15.548Z,971.22
2023-01-17T00:39:15.520Z,971.22
2023-01-17T00:40:15.513Z,971.29
2023-01-17T00:41:15.495Z,971.27
2023-01-17T00:42:15.480Z,971.23
2023-01-17T00:43:15.482Z,971.28
2023-01-17T00:44:15.450Z,971.20
2023-01-17T00:45:15.437Z,971.18
2023-01-17T00:46:15.459Z,971.28
2023-01-17T00:47:15.418Z,971.29
2023-01-17T00:48:15.414Z,971.31
2023-01-17T00:49:15.388Z,971.28
2023-01-17T00:50:15.374Z,971.34
2023-01-17T00:51:15.381Z,971.28
2023-01-17T00:52:15.365Z,971.33
2023-01-17T00:53:15.346Z,971.38
2023-01-17T00:54:16.951Z,971.40
2023-01-17T00:55:15.311Z,971.35
2023-01-17T00:56:15.293Z,971.38
2023-01-17T00:57:15.280Z,971.49
2023-01-17T00:58:15.288Z,971.49
2023-01-17T00:59:15.257Z,971.54
2023-01-17T01:00:15.247Z,971.52
2023-01-17T01:01:15.355Z,971.49
2023-01-17T01:02:15.260Z,971.54
2023-01-17T01:03:15.239Z,971.49
2023-01-17T01:04:15.193Z,971.47
2023-01-17T01:05:15.180Z,971.53
2023-01-17T01:06:15.166Z,971.57
2023-01-17T01:07:15.172Z,971.53
2023-01-17T01:08:15.152Z,971.60
2023-01-17T01:09:15.126Z,971.71
2023-01-17T01:10:15.114Z,971.52
2023-01-17T01:11:15.101Z,971.52
2023-01-17T01:12:15.092Z,971.73
2023-01-17T01:13:15.088Z,971.69
2023-01-17T01:14:15.082Z,971.72
2023-01-17T01:15:15.045Z,971.81
2023-01-17T01:16:15.049Z,971.77
2023-01-17T01:17:15.027Z,971.78
2023-01-17T01:18:15.025Z,971.76
2023-01-17T01:19:14.996Z,971.88
2023-01-17T01:20:14.990Z,971.82
2023-01-17T01:21:14.972Z,971.90
2023-01-17T01:22:14.962Z,971.90
2023-01-17T01:23:14.982Z,971.91
2023-01-17T01:24:14.931Z,971.89
2023-01-17T01:25:14.916Z,971.93
2023-01-17T01:26:14.906Z,971.83
2023-01-17T01:27:14.896Z,971.89
2023-01-17T01:28:14.924Z,971.97
2023-01-17T01:29:14.867Z,971.93
2023-01-17T01:30:14.854Z,971.92
2023-01-17T01:31:14.886Z,972.03
2023-01-17T01:32:14.831Z,971.98
2023-01-17T01:33:14.836Z,972.04
2023-01-17T01:34:14.809Z,971.96
2023-01-17T01:35:14.795Z,972.01
2023-01-17T01:36:14.786Z,972.00
2023-01-17T01:37:14.775Z,972.03
2023-01-17T01:38:14.779Z,972.07
2023-01-17T01:39:14.764Z,972.07
2023-01-17T01:40:14.732Z,972.16
2023-01-17T01:41:14.716Z,972.14
2023-01-17T01:42:14.702Z,972.16
2023-01-17T01:43:14.700Z,972.24
2023-01-17T01:44:14.691Z,972.19
2023-01-17T01:45:14.666Z,972.20
2023-01-17T01:46:14.660Z,972.16
2023-01-17T01:47:14.657Z,972.25
2023-01-17T01:48:14.639Z,972.24
2023-01-17T01:49:14.625Z,972.31
2023-01-17T01:50:14.598Z,972.26
2023-01-17T01:51:14.589Z,972.26
2023-01-17T01:52:14.573Z,972.28
2023-01-17T01:53:14.562Z,972.40
2023-01-17T01:54:14.564Z,972.32
2023-01-17T01:55:14.572Z,972.42
2023-01-17T01:56:14.526Z,972.49
2023-01-17T01:57:14.511Z,972.36
2023-01-17T01:58:14.500Z,972.42
2023-01-17T01:59:14.497Z,972.35
2023-01-17T02:00:14.479Z,972.39
2023-01-17T02:01:14.571Z,972.46
2023-01-17T02:02:14.448Z,972.40
2023-01-17T02:03:14.444Z,972.40
2023-01-17T02:04:14.443Z,972.55
2023-01-17T02:05:14.408Z,972.43
2023-01-17T02:06:14.393Z,972.47
2023-01-17T02:07:14.382Z,972.48
2023-01-17T02:08:14.370Z,972.45
2023-01-17T02:09:14.369Z,972.41
2023-01-17T02:10:14.347Z,972.53
2023-01-17T02:11:14.357Z,972.54
2023-01-17T02:12:14.320Z,972.61
2023-01-17T02:13:14.308Z,972.57
2023-01-17T02:14:14.313Z,972.61
2023-01-17T02:15:14.283Z,972.60
2023-01-17T02:16:14.387Z,972.58
2023-01-17T02:17:14.266Z,972.58
2023-01-17T02:18:14.247Z,972.70
2023-01-17T02:19:14.251Z,972.61
2023-01-17T02:20:14.248Z,972.68
2023-01-17T02:21:14.208Z,972.68
2023-01-17T02:22:14.198Z,972.73
2023-01-17T02:23:14.193Z,972.74
2023-01-17T02:24:14.205Z,972.72
2023-01-17T02:25:14.159Z,972.73
2023-01-17T02:26:14.141Z,972.76
2023-01-17T02:27:14.153Z,972.53
2023-01-17T02:28:14.116Z,972.75
2023-01-17T02:29:14.119Z,972.78
2023-01-17T02:30:14.105Z,972.69
2023-01-17T02:31:14.146Z,972.73
2023-01-17T02:32:14.063Z,972.72
2023-01-17T02:33:14.054Z,972.77
2023-01-17T02:34:14.058Z,972.79
2023-01-17T02:35:14.030Z,972.82
2023-01-17T02:36:14.016Z,972.84
2023-01-17T02:37:14.007Z,972.88
2023-01-17T02:38:13.995Z,972.86
2023-01-17T02:39:14.014Z,972.90
2023-01-17T02:40:13.966Z,972.91
2023-01-17T02:41:13.955Z,972.97
2023-01-17T02:42:13.939Z,972.93
2023-01-17T02:43:13.950Z,972.94
2023-01-17T02:44:13.915Z,972.93
2023-01-17T02:45:13.922Z,972.85
2023-01-17T02:46:13.901Z,972.97
2023-01-17T02:47:13.879Z,972.96
2023-01-17T02:48:13.870Z,972.99
2023-01-17T02:49:13.859Z,972.99
2023-01-17T02:50:13.865Z,973.00
2023-01-17T02:51:13.836Z,973.12
2023-01-17T02:52:13.828Z,973.09
2023-01-17T02:53:13.803Z,973.12
2023-01-17T02:54:13.792Z,972.99
2023-01-17T02:55:13.797Z,973.14
2023-01-17T02:56:13.770Z,973.16
2023-01-17T02:57:13.756Z,973.16
2023-01-17T02:58:13.745Z,973.09
2023-01-17T02:59:13.755Z,973.15
2023-01-17T03:00:13.737Z,973.22
2023-01-17T03:01:13.817Z,973.20
2023-01-17T03:02:13.759Z,973.18
2023-01-17T03:03:13.684Z,973.14
2023-01-17T03:04:13.673Z,973.19
2023-01-17T03:05:13.668Z,973.20
2023-01-17T03:06:13.643Z,973.19
2023-01-17T03:07:13.634Z,973.26
2023-01-17T03:08:13.616Z,973.26
2023-01-17T03:09:13.601Z,973.26
2023-01-17T03:10:13.605Z,973.20
2023-01-17T03:11:13.582Z,973.32
2023-01-17T03:12:13.592Z,973.28
2023-01-17T03:13:13.559Z,973.25
2023-01-17T03:14:13.538Z,973.24
2023-01-17T03:15:13.562Z,973.27
2023-01-17T03:16:13.554Z,973.26
2023-01-17T03:17:13.505Z,973.24
2023-01-17T03:18:13.496Z,973.23
2023-01-17T03:19:13.491Z,973.27
2023-01-17T03:20:13.532Z,973.33
2023-01-17T03:21:13.453Z,973.24
2023-01-17T03:22:13.453Z,973.34
2023-01-17T03:23:13.427Z,973.27
2023-01-17T03:24:13.412Z,973.36
2023-01-17T03:25:13.420Z,973.29
2023-01-17T03:26:13.408Z,973.40
2023-01-17T03:27:13.380Z,973.31
2023-01-17T03:28:13.372Z,973.34
2023-01-17T03:29:13.355Z,973.39
2023-01-17T03:30:13.354Z,973.46
2023-01-17T03:31:13.349Z,973.33
2023-01-17T03:32:13.318Z,973.32
2023-01-17T03:33:13.302Z,973.35
2023-01-17T03:34:13.288Z,973.38
2023-01-17T03:35:13.293Z,973.35
2023-01-17T03:36:13.268Z,973.42
2023-01-17T03:37:13.258Z,973.53
2023-01-17T03:38:13.237Z,973.50
2023-01-17T03:39:13.233Z,973.42
2023-01-17T03:40:13.252Z,973.53
2023-01-17T03:41:13.206Z,973.60
2023-01-17T03:42:13.189Z,973.58
2023-01-17T03:43:13.176Z,973.62
2023-01-17T03:44:13.166Z,973.69
2023-01-17T03:45:14.174Z,973.63
2023-01-17T03:46:13.154Z,973.63
2023-01-17T03:47:13.167Z,973.63
2023-01-17T03:48:13.135Z,973.70
2023-01-17T03:49:13.103Z,973.72
2023-01-17T03:50:13.113Z,973.70
2023-01-17T03:51:13.079Z,973.67
2023-01-17T03:52:13.083Z,973.70
2023-01-17T03:53:13.053Z,973.73
2023-01-17T03:54:13.035Z,973.74
2023-01-17T03:55:13.028Z,973.67
2023-01-17T03:56:13.035Z,973.68
2023-01-17T03:57:13.006Z,973.72
2023-01-17T03:58:13.004Z,973.75
2023-01-17T03:59:13.341Z,973.77
2023-01-17T04:00:12.987Z,973.84
2023-01-17T04:01:13.053Z,973.80
2023-01-17T04:02:13.039Z,973.76
2023-01-17T04:03:12.963Z,973.72
2023-01-17T04:04:12.918Z,973.75
2023-01-17T04:05:12.909Z,973.76
2023-01-17T04:06:12.918Z,973.77
2023-01-17T04:07:12.878Z,973.77
2023-01-17T04:08:12.866Z,973.80
2023-01-17T04:09:12.855Z,973.79
2023-01-17T04:10:12.840Z,973.78
2023-01-17T04:11:12.852Z,973.81
2023-01-17T04:12:12.815Z,973.71
2023-01-17T04:13:12.804Z,973.76
2023-01-17T04:14:12.793Z,973.78
2023-01-17T04:15:12.781Z,973.77
2023-01-17T04:16:12.807Z,973.73
2023-01-17T04:17:12.757Z,973.80
2023-01-17T04:18:12.747Z,973.86
2023-01-17T04:19:12.776Z,973.82
2023-01-17T04:20:12.715Z,973.84
2023-01-17T04:21:12.727Z,973.87
2023-01-17T04:22:12.696Z,973.87
2023-01-17T04:23:12.683Z,973.89
2023-01-17T04:24:12.661Z,973.90
2023-01-17T04:25:12.652Z,973.88
2023-01-17T04:26:12.659Z,973.90
2023-01-17T04:27:12.627Z,973.89
2023-01-17T04:28:12.660Z,973.94
2023-01-17T04:29:12.612Z,973.89
2023-01-17T04:30:12.610Z,973.93
2023-01-17T04:31:12.782Z,973.96
2023-01-17T04:32:12.583Z,973.93
2023-01-17T04:33:12.563Z,973.95
2023-01-17T04:34:12.550Z,973.94
2023-01-17T04:35:12.547Z,974.02
2023-01-17T04:36:12.551Z,974.01
2023-01-17T04:37:12.512Z,974.02
2023-01-17T04:38:12.489Z,974.09
2023-01-17T04:39:12.483Z,974.09
2023-01-17T04:40:12.472Z,973.98
2023-01-17T04:41:12.470Z,974.04
2023-01-17T04:42:12.443Z,974.02
2023-01-17T04:43:12.431Z,974.03
2023-01-17T04:44:12.419Z,974.08
2023-01-17T04:45:12.413Z,974.04
2023-01-17T04:46:12.528Z,974.10
2023-01-17T04:47:12.394Z,974.01
2023-01-17T04:48:12.380Z,974.05
2023-01-17T04:49:12.353Z,974.02
2023-01-17T04:50:12.348Z,974.05
2023-01-17T04:51:12.375Z,974.08
2023-01-17T04:52:12.316Z,974.09
2023-01-17T04:53:12.309Z,974.13
2023-01-17T04:54:12.301Z,974.10
2023-01-17T04:55:12.286Z,974.13
2023-01-17T04:56:12.288Z,974.25
2023-01-17T04:57:12.260Z,974.27
2023-01-17T04:58:12.241Z,974.27
2023-01-17T04:59:12.233Z,974.30
2023-01-17T05:00:12.233Z,974.30
2023-01-17T05:01:12.330Z,974.23
2023-01-17T05:02:12.213Z,974.26
2023-01-17T05:03:12.188Z,974.23
2023-01-17T05:04:12.182Z,974.25
2023-01-17T05:05:12.161Z,974.29
2023-01-17T05:06:12.148Z,974.27
2023-01-17T05:07:12.174Z,974.27
2023-01-17T05:08:12.128Z,974.24
2023-01-17T05:09:12.114Z,974.21
2023-01-17T05:10:12.093Z,974.23
2023-01-17T05:11:12.103Z,974.27
2023-01-17T05:12:12.091Z,974.26
2023-01-17T05:13:12.058Z,974.26
2023-01-17T05:14:12.050Z,974.25
2023-01-17T05:15:12.055Z,974.24
2023-01-17T05:16:12.041Z,974.25
2023-01-17T05:17:12.047Z,974.28
2023-01-17T05:18:12.018Z,974.23
2023-01-17T05:19:11.983Z,974.24
2023-01-17T05:20:11.972Z,974.29
2023-01-17T05:21:11.956Z,974.28
2023-01-17T05:22:11.963Z,974.32
2023-01-17T05:23:11.984Z,974.32
2023-01-17T05:24:11.935Z,974.31
2023-01-17T05:25:11.909Z,974.32
2023-01-17T05:26:11.895Z,974.24
2023-01-17T05:27:11.896Z,974.30
2023-01-17T05:28:11.876Z,974.20
2023-01-17T05:29:11.868Z,974.24
2023-01-17T05:30:11.842Z,974.24
2023-01-17T05:31:11.913Z,974.24
2023-01-17T05:32:11.851Z,974.23
2023-01-17T05:33:11.830Z,974.24
2023-01-17T05:34:11.805Z,974.29
2023-01-17T05:35:11.787Z,974.28
2023-01-17T05:36:11.787Z,974.27
2023-01-17T05:37:11.783Z,974.30
2023-01-17T05:38:11.752Z,974.38
2023-01-17T05:39:11.773Z,974.34
2023-01-17T05:40:11.730Z,974.35
2023-01-17T05:41:11.734Z,974.36
2023-01-17T05:42:11.726Z,974.42
2023-01-17T05:43:11.692Z,974.40
2023-01-17T05:44:11.673Z,974.38
2023-01-17T05:45:11.658Z,974.39
2023-01-17T05:46:11.706Z,974.39
2023-01-17T05:47:11.661Z,974.44
2023-01-17T05:48:11.619Z,974.42
2023-01-17T05:49:11.606Z,974.52
2023-01-17T05:50:11.598Z,974.43
2023-01-17T05:51:11.598Z,974.51
2023-01-17T05:52:11.583Z,974.50
2023-01-17T05:53:11.782Z,974.51
2023-01-17T05:54:11.543Z,974.55
2023-01-17T05:55:11.556Z,974.51
2023-01-17T05:56:11.527Z,974.56
2023-01-17T05:57:11.544Z,974.54
2023-01-17T05:58:11.496Z,974.52
2023-01-17T05:59:14.001Z,974.54
2023-01-17T06:00:11.480Z,974.53
2023-01-17T06:01:11.481Z,974.55
2023-01-17T06:02:11.481Z,974.57
2023-01-17T06:03:11.434Z,974.61
2023-01-17T06:04:11.433Z,974.58
2023-01-17T06:05:11.408Z,974.53
2023-01-17T06:06:11.391Z,974.56
2023-01-17T06:07:11.380Z,974.61
2023-01-17T06:08:11.381Z,974.64
2023-01-17T06:09:11.352Z,974.59
2023-01-17T06:10:11.343Z,974.60
2023-01-17T06:11:11.358Z,974.61
2023-01-17T06:12:11.319Z,974.60
2023-01-17T06:13:11.322Z,974.62
2023-01-17T06:14:11.304Z,974.62
2023-01-17T06:15:11.277Z,974.66
2023-01-17T06:16:11.432Z,974.62
2023-01-17T06:17:11.251Z,974.67
2023-01-17T06:18:11.258Z,974.64
2023-01-17T06:19:11.227Z,974.65
2023-01-17T06:20:11.217Z,974.65
2023-01-17T06:21:11.204Z,974.64
2023-01-17T06:22:11.196Z,974.62
2023-01-17T06:23:11.187Z,974.60
2023-01-17T06:24:11.165Z,974.64
2023-01-17T06:25:11.159Z,974.54
2023-01-17T06:26:11.144Z,974.54
2023-01-17T06:27:11.166Z,974.53
2023-01-17T06:28:11.127Z,974.59
2023-01-17T06:29:11.102Z,974.56
2023-01-17T06:30:11.104Z,974.59
2023-01-17T06:31:11.138Z,974.58
2023-01-17T06:32:11.088Z,974.52
2023-01-17T06:33:11.060Z,974.50
2023-01-17T06:34:11.041Z,974.56
2023-01-17T06:35:11.025Z,974.54
2023-01-17T06:36:11.016Z,974.50
2023-01-17T06:37:10.998Z,974.58
2023-01-17T06:38:11.004Z,974.54
2023-01-17T06:39:11.003Z,974.55
2023-01-17T06:40:10.958Z,974.57
2023-01-17T06:41:10.957Z,974.53
2023-01-17T06:42:10.933Z,974.55
2023-01-17T06:43:10.963Z,974.58
2023-01-17T06:44:10.915Z,974.60
2023-01-17T06:45:10.901Z,974.59
2023-01-17T06:46:10.897Z,974.61
2023-01-17T06:47:10.869Z,974.64
2023-01-17T06:48:10.877Z,974.67
2023-01-17T06:49:10.844Z,974.63
2023-01-17T06:50:10.833Z,974.65
2023-01-17T06:51:10.828Z,974.61
2023-01-17T06:52:10.803Z,974.63
2023-01-17T06:53:10.805Z,974.65
2023-01-17T06:54:10.779Z,974.62
2023-01-17T06:55:10.769Z,974.62
2023-01-17T06:56:10.753Z,974.63
2023-01-17T06:57:10.743Z,974.61
2023-01-17T06:58:10.764Z,974.59
2023-01-17T06:59:10.743Z,974.57
2023-01-17T07:00:10.711Z,974.63
2023-01-17T07:01:10.835Z,974.66
2023-01-17T07:02:10.680Z,974.65
2023-01-17T07:03:10.684Z,974.62
2023-01-17T07:04:10.703Z,974.60
2023-01-17T07:05:10.660Z,974.62
2023-01-17T07:06:10.630Z,974.56
2023-01-17T07:07:10.618Z,974.60
2023-01-17T07:08:10.624Z,974.56
2023-01-17T07:09:10.589Z,974.60
2023-01-17T07:10:10.578Z,974.61
2023-01-17T07:11:10.569Z,974.59
2023-01-17T07:12:10.559Z,974.66
2023-01-17T07:13:10.554Z,974.65
2023-01-17T07:14:10.541Z,974.65
2023-01-17T07:15:10.550Z,974.69
2023-01-17T07:16:10.518Z,974.64
2023-01-17T07:17:10.498Z,974.63
2023-01-17T07:18:10.481Z,974.66
2023-01-17T07:19:10.481Z,974.64
2023-01-17T07:20:10.460Z,974.64
2023-01-17T07:21:10.458Z,974.66
2023-01-17T07:22:10.427Z,974.64
2023-01-17T07:23:10.418Z,974.67
2023-01-17T07:24:10.427Z,974.63
2023-01-17T07:25:10.383Z,974.63
2023-01-17T07:26:10.375Z,974.57
2023-01-17T07:27:10.362Z,974.57
2023-01-17T07:28:10.356Z,974.52
2023-01-17T07:29:10.354Z,974.60
2023-01-17T07:30:10.325Z,974.52
2023-01-17T07:31:10.393Z,974.49
2023-01-17T07:32:10.309Z,974.51
2023-01-17T07:33:10.288Z,974.48
2023-01-17T07:34:10.295Z,974.45
2023-01-17T07:35:10.263Z,974.44
2023-01-17T07:36:10.250Z,974.43
2023-01-17T07:37:10.238Z,974.44
2023-01-17T07:38:10.225Z,974.41
2023-01-17T07:39:10.229Z,974.36
2023-01-17T07:40:10.199Z,974.34
2023-01-17T07:41:11.120Z,974.41
2023-01-17T07:42:10.181Z,974.42
2023-01-17T07:43:10.161Z,974.44
2023-01-17T07:44:10.272Z,974.44
2023-01-17T07:45:10.129Z,974.44
2023-01-17T07:46:10.124Z,974.48
2023-01-17T07:47:10.138Z,974.48
2023-01-17T07:48:10.103Z,974.54
2023-01-17T07:49:10.102Z,974.45
2023-01-17T07:50:10.112Z,974.47
2023-01-17T07:51:10.059Z,974.45
2023-01-17T07:52:10.045Z,974.49
2023-01-17T07:53:10.062Z,974.57
2023-01-17T07:54:10.042Z,974.53
2023-01-17T07:55:10.007Z,974.51
2023-01-17T07:56:09.992Z,974.50
2023-01-17T07:57:09.981Z,974.48
2023-01-17T07:58:09.981Z,974.45
2023-01-17T07:59:09.969Z,974.47
2023-01-17T08:00:09.947Z,974.47
2023-01-17T08:01:10.145Z,974.49
2023-01-17T08:02:09.948Z,974.48
2023-01-17T08:03:09.922Z,974.50
2023-01-17T08:04:09.953Z,974.45
2023-01-17T08:05:09.878Z,974.46
2023-01-17T08:06:09.870Z,974.46
2023-01-17T08:07:09.851Z,974.47
2023-01-17T08:08:09.839Z,974.46
2023-01-17T08:09:09.851Z,974.39
2023-01-17T08:10:09.813Z,974.36
2023-01-17T08:11:09.803Z,974.34
2023-01-17T08:12:09.791Z,974.38
2023-01-17T08:13:09.776Z,974.38
2023-01-17T08:14:09.781Z,974.36
2023-01-17T08:15:09.749Z,974.35
2023-01-17T08:16:09.745Z,974.31
2023-01-17T08:17:09.723Z,974.33
2023-01-17T08:18:09.712Z,974.37
2023-01-17T08:19:09.739Z,974.42
2023-01-17T08:20:09.689Z,974.39
2023-01-17T08:21:09.675Z,974.33
2023-01-17T08:22:09.663Z,974.36
2023-01-17T08:23:09.657Z,974.32
2023-01-17T08:24:09.669Z,974.37
2023-01-17T08:25:09.623Z,974.36
2023-01-17T08:26:09.613Z,974.34
2023-01-17T08:27:09.599Z,974.38
2023-01-17T08:28:09.585Z,974.40
2023-01-17T08:29:09.583Z,974.33
2023-01-17T08:30:09.601Z,974.32
2023-01-17T08:31:09.569Z,974.44
2023-01-17T08:32:09.544Z,974.57
2023-01-17T08:33:09.526Z,974.47
2023-01-17T08:34:09.550Z,974.27
2023-01-17T08:35:09.555Z,974.25
2023-01-17T08:36:09.488Z,974.21
2023-01-17T08:37:09.471Z,974.31
2023-01-17T08:38:09.458Z,974.41
2023-01-17T08:39:09.456Z,974.46
2023-01-17T08:40:09.451Z,974.46
2023-01-17T08:41:09.419Z,974.43
2023-01-17T08:42:09.404Z,974.43
2023-01-17T08:43:09.399Z,974.40
2023-01-17T08:44:09.386Z,974.40
2023-01-17T08:45:09.395Z,974.42
2023-01-17T08:46:09.396Z,974.35
2023-01-17T08:47:09.339Z,974.38
2023-01-17T08:48:09.327Z,974.35
2023-01-17T08:49:09.320Z,974.31
2023-01-17T08:50:09.318Z,974.29
2023-01-17T08:51:09.328Z,974.23
2023-01-17T08:52:09.281Z,974.26
2023-01-17T08:53:09.262Z,974.25
2023-01-17T08:54:09.259Z,974.26
2023-01-17T08:55:09.251Z,974.27
2023-01-17T08:56:09.226Z,974.31
2023-01-17T08:57:09.219Z,974.08
2023-01-17T08:58:09.197Z,974.00
2023-01-17T08:59:09.193Z,974.24
2023-01-17T09:00:09.221Z,974.32
2023-01-17T09:01:09.375Z,974.32
2023-01-17T09:02:09.285Z,974.24
2023-01-17T09:03:09.132Z,974.33
2023-01-17T09:04:09.265Z,974.28
2023-01-17T09:05:09.132Z,974.29
2023-01-17T09:06:09.105Z,974.26
2023-01-17T09:07:09.106Z,974.21
2023-01-17T09:08:09.092Z,974.31
2023-01-17T09:09:09.059Z,974.28
2023-01-17T09:10:09.053Z,974.34
2023-01-17T09:11:09.033Z,974.27
2023-01-17T09:12:09.030Z,974.27
2023-01-17T09:13:09.017Z,974.27
2023-01-17T09:14:08.990Z,974.28
2023-01-17T09:15:08.987Z,974.33
2023-01-17T09:16:08.966Z,974.34
2023-01-17T09:17:08.948Z,974.35
2023-01-17T09:18:08.936Z,974.29
2023-01-17T09:19:08.937Z,974.34
2023-01-17T09:20:08.929Z,974.29
2023-01-17T09:21:08.902Z,974.30
2023-01-17T09:22:08.888Z,974.38
2023-01-17T09:23:08.896Z,974.35
2023-01-17T09:24:08.863Z,974.38
2023-01-17T09:25:08.861Z,974.43
2023-01-17T09:26:08.840Z,974.41
2023-01-17T09:27:08.887Z,974.43
2023-01-17T09:28:08.811Z,974.42
2023-01-17T09:29:08.796Z,974.42
2023-01-17T09:30:08.806Z,974.25
2023-01-17T09:31:08.876Z,974.39
2023-01-17T09:32:08.762Z,974.43
2023-01-17T09:33:08.744Z,974.45
2023-01-17T09:34:08.738Z,974.47
2023-01-17T09:35:08.745Z,974.40
2023-01-17T09:36:08.705Z,974.50
2023-01-17T09:37:08.695Z,974.48
2023-01-17T09:38:08.677Z,974.55
2023-01-17T09:39:08.688Z,974.50
2023-01-17T09:40:08.677Z,974.51
2023-01-17T09:41:08.641Z,974.50
2023-01-17T09:42:08.632Z,974.55
2023-01-17T09:43:08.612Z,974.54
2023-01-17T09:44:08.606Z,974.57
2023-01-17T09:45:08.593Z,974.55
2023-01-17T09:46:08.685Z,974.61
2023-01-17T09:47:08.628Z,974.57
2023-01-17T09:48:08.550Z,974.57
2023-01-17T09:49:08.581Z,974.70
2023-01-17T09:50:08.565Z,974.67
2023-01-17T09:51:08.554Z,974.69
2023-01-17T09:52:08.536Z,974.75
2023-01-17T09:53:08.497Z,974.76
2023-01-17T09:54:08.481Z,974.76
2023-01-17T09:55:08.478Z,974.74
2023-01-17T09:56:08.487Z,974.66
2023-01-17T09:57:08.436Z,974.71
2023-01-17T09:58:08.422Z,974.68
2023-01-17T09:59:08.432Z,974.72
2023-01-17T10:00:08.405Z,974.68
2023-01-17T10:01:08.685Z,974.69
2023-01-17T10:02:08.544Z,974.73
2023-01-17T10:03:08.500Z,974.72
2023-01-17T10:04:08.485Z,974.69
2023-01-17T10:05:08.469Z,974.76
2023-01-17T10:06:08.341Z,974.67
2023-01-17T10:07:08.308Z,974.73
2023-01-17T10:08:08.293Z,974.74
2023-01-17T10:09:08.303Z,974.77
2023-01-17T10:10:08.283Z,974.77
2023-01-17T10:11:08.299Z,974.71
2023-01-17T10:12:08.246Z,974.76
2023-01-17T10:13:08.231Z,974.72
2023-01-17T10:14:08.230Z,974.74
2023-01-17T10:15:08.217Z,974.69
2023-01-17T10:16:08.212Z,974.73
2023-01-17T10:17:08.184Z,974.67
2023-01-17T10:18:08.170Z,974.73
2023-01-17T10:19:08.164Z,974.73
2023-01-17T10:20:08.144Z,974.73
2023-01-17T10:21:08.149Z,974.79
2023-01-17T10:22:08.121Z,974.76
2023-01-17T10:23:08.139Z,974.74
2023-01-17T10:24:08.097Z,974.69
2023-01-17T10:25:08.087Z,974.73
2023-01-17T10:26:08.092Z,974.69
2023-01-17T10:27:08.112Z,974.71
2023-01-17T10:28:08.049Z,974.81
2023-01-17T10:29:08.036Z,974.71
2023-01-17T10:30:08.029Z,974.66
2023-01-17T10:31:08.021Z,974.71
2023-01-17T10:32:07.988Z,974.67
2023-01-17T10:33:07.979Z,974.69
2023-01-17T10:34:07.968Z,974.73
2023-01-17T10:35:07.956Z,974.69
2023-01-17T10:36:07.960Z,974.68
2023-01-17T10:37:07.935Z,974.69
2023-01-17T10:38:07.919Z,974.71
2023-01-17T10:39:07.908Z,974.70
2023-01-17T10:40:07.887Z,974.72
2023-01-17T10:41:07.960Z,974.74
2023-01-17T10:42:07.869Z,974.68
2023-01-17T10:43:07.876Z,974.71
2023-01-17T10:44:07.843Z,974.63
2023-01-17T10:45:07.836Z,974.65
2023-01-17T10:46:07.870Z,974.63
2023-01-17T10:47:07.801Z,974.51
2023-01-17T10:48:07.790Z,974.66
2023-01-17T10:49:07.780Z,974.66
2023-01-17T10:50:07.762Z,974.65
2023-01-17T10:51:07.765Z,974.62
2023-01-17T10:52:07.737Z,974.62
2023-01-17T10:53:07.729Z,974.62
2023-01-17T10:54:07.737Z,974.65
2023-01-17T10:55:07.708Z,974.71
2023-01-17T10:56:07.704Z,974.63
2023-01-17T10:57:07.675Z,974.61
2023-01-17T10:58:07.661Z,974.70
2023-01-17T10:59:07.678Z,974.68
2023-01-17T11:00:07.641Z,974.63
2023-01-17T11:01:07.733Z,974.71
2023-01-17T11:02:07.747Z,974.68
2023-01-17T11:03:07.653Z,974.69
2023-01-17T11:04:07.580Z,974.65
2023-01-17T11:05:07.574Z,974.65
2023-01-17T11:06:07.562Z,974.67
2023-01-17T11:07:07.562Z,974.72
2023-01-17T11:08:07.533Z,974.72
2023-01-17T11:09:07.524Z,974.71
2023-01-17T11:10:07.512Z,974.70
2023-01-17T11:11:07.511Z,974.59
2023-01-17T11:12:07.505Z,974.61
2023-01-17T11:13:07.469Z,974.62
2023-01-17T11:14:07.456Z,974.65
2023-01-17T11:15:07.468Z,974.66
2023-01-17T11:16:07.505Z,974.59
2023-01-17T11:17:07.441Z,974.59
2023-01-17T11:18:07.411Z,974.61
2023-01-17T11:19:07.395Z,974.62
2023-01-17T11:20:07.380Z,974.61
2023-01-17T11:21:07.367Z,974.61
2023-01-17T11:22:07.372Z,974.56
2023-01-17T11:23:07.343Z,974.55
2023-01-17T11:24:07.326Z,974.61
2023-01-17T11:25:07.316Z,974.57
2023-01-17T11:26:07.304Z,974.59
2023-01-17T11:27:07.312Z,974.57
2023-01-17T11:28:07.289Z,974.62
2023-01-17T11:29:07.269Z,974.57
2023-01-17T11:30:07.253Z,974.56
2023-01-17T11:31:07.398Z,974.46
2023-01-17T11:32:07.243Z,974.44
2023-01-17T11:33:07.225Z,974.30
2023-01-17T11:34:07.199Z,974.15
2023-01-17T11:35:07.202Z,974.13
2023-01-17T11:36:07.177Z,974.40
2023-01-17T11:37:07.178Z,974.41
2023-01-17T11:38:07.158Z,974.41
2023-01-17T11:39:07.147Z,974.35
2023-01-17T11:40:07.123Z,974.32
2023-01-17T11:41:07.110Z,974.29
2023-01-17T11:42:07.115Z,974.31
2023-01-17T11:43:07.084Z,974.30
2023-01-17T11:44:07.076Z,974.28
2023-01-17T11:45:07.063Z,974.14
2023-01-17T11:46:07.165Z,974.17
2023-01-17T11:47:07.077Z,974.12
2023-01-17T11:48:07.023Z,973.99
2023-01-17T11:49:07.011Z,974.05
2023-01-17T11:50:06.994Z,973.90
2023-01-17T11:51:06.990Z,974.04
2023-01-17T11:52:06.990Z,973.99
2023-01-17T11:53:06.963Z,973.98
2023-01-17T11:54:06.944Z,973.94
2023-01-17T11:55:06.933Z,973.92
2023-01-17T11:56:06.914Z,973.96
2023-01-17T11:57:06.917Z,973.89
2023-01-17T11:58:06.892Z,973.85
2023-01-17T11:59:06.882Z,973.75
2023-01-17T12:00:06.866Z,973.69
2023-01-17T12:01:06.904Z,973.55
2023-01-17T12:02:07.171Z,973.60
2023-01-17T12:03:06.847Z,973.58
2023-01-17T12:04:06.859Z,973.56
2023-01-17T12:05:06.877Z,973.66
2023-01-17T12:06:06.805Z,973.61
2023-01-17T12:07:06.777Z,973.61
2023-01-17T12:08:06.777Z,973.63
2023-01-17T12:09:06.752Z,973.59
2023-01-17T12:10:06.738Z,973.68
2023-01-17T12:11:06.728Z,973.65
2023-01-17T12:12:06.710Z,973.62
2023-01-17T12:13:06.713Z,973.65
2023-01-17T12:14:06.685Z,973.67
2023-01-17T12:15:06.693Z,973.62
2023-01-17T12:16:06.698Z,973.63
2023-01-17T12:17:06.680Z,973.49
2023-01-17T12:18:06.648Z,973.52
2023-01-17T12:19:06.648Z,973.47
2023-01-17T12:20:06.623Z,973.43
2023-01-17T12:21:06.594Z,973.45
2023-01-17T12:22:06.583Z,973.39
2023-01-17T12:23:06.597Z,973.40
2023-01-17T12:24:06.553Z,973.43
2023-01-17T12:25:06.544Z,973.42
2023-01-17T12:26:06.526Z,973.43
2023-01-17T12:27:06.519Z,973.33
2023-01-17T12:28:06.533Z,973.42